sensor_id;sensor_type;location;lat;lon;timestamp;pressure;altitude;pressure_sealevel;temperature;humidity
48926;BME280;39838;59.938;30.642;2022-07-24T00:00:37;100210.25;;;18.55;88.71
48926;BME280;39838;59.938;30.642;2022-07-24T00:03:04;100205.91;;;18.54;88.45
48926;BME280;39838;59.938;30.642;2022-07-24T00:05:31;100205.06;;;18.53;88.42
48926;BME280;39838;59.938;30.642;2022-07-24T00:07:58;100197.22;;;18.52;88.50
48926;BME280;39838;59.938;30.642;2022-07-24T00:10:26;100192.06;;;18.49;88.32
48926;BME280;39838;59.938;30.642;2022-07-24T00:12:53;100195.63;;;18.48;88.08
48926;BME280;39838;59.938;30.642;2022-07-24T00:15:22;100199.28;;;18.44;88.20
48926;BME280;39838;59.938;30.642;2022-07-24T00:17:49;100192.34;;;18.41;87.97
48926;BME280;39838;59.938;30.642;2022-07-24T00:20:16;100194.31;;;18.36;88.16
48926;BME280;39838;59.938;30.642;2022-07-24T00:22:43;100191.84;;;18.32;88.12
48926;BME280;39838;59.938;30.642;2022-07-24T00:25:10;100186.75;;;18.27;88.22
48926;BME280;39838;59.938;30.642;2022-07-24T00:27:37;100198.25;;;18.24;88.23
48926;BME280;39838;59.938;30.642;2022-07-24T00:30:05;100189.59;;;18.21;88.35
48926;BME280;39838;59.938;30.642;2022-07-24T00:32:34;100194.13;;;18.17;88.42
48926;BME280;39838;59.938;30.642;2022-07-24T00:35:01;100196.81;;;18.16;88.41
48926;BME280;39838;59.938;30.642;2022-07-24T00:37:28;100186.47;;;18.11;88.51
48926;BME280;39838;59.938;30.642;2022-07-24T00:39:55;100185.66;;;18.09;88.46
48926;BME280;39838;59.938;30.642;2022-07-24T00:42:22;100182.28;;;18.06;88.54
48926;BME280;39838;59.938;30.642;2022-07-24T00:44:49;100185.88;;;18.03;88.53
48926;BME280;39838;59.938;30.642;2022-07-24T00:47:16;100185.91;;;18.01;88.66
48926;BME280;39838;59.938;30.642;2022-07-24T00:49:45;100179.00;;;17.99;88.57
48926;BME280;39838;59.938;30.642;2022-07-24T00:52:12;100177.34;;;17.96;88.71
48926;BME280;39838;59.938;30.642;2022-07-24T00:54:39;100178.28;;;17.95;88.61
48926;BME280;39838;59.938;30.642;2022-07-24T00:57:06;100176.53;;;17.94;88.83
48926;BME280;39838;59.938;30.642;2022-07-24T00:59:33;100173.97;;;17.93;88.80
48926;BME280;39838;59.938;30.642;2022-07-24T01:02:01;100187.09;;;17.93;88.92
48926;BME280;39838;59.938;30.642;2022-07-24T01:04:28;100181.91;;;17.91;88.75
48926;BME280;39838;59.938;30.642;2022-07-24T01:06:56;100185.44;;;17.90;88.94
48926;BME280;39838;59.938;30.642;2022-07-24T01:09:23;100180.25;;;17.89;88.72
48926;BME280;39838;59.938;30.642;2022-07-24T01:11:51;100182.03;;;17.88;88.67
48926;BME280;39838;59.938;30.642;2022-07-24T01:14:19;100175.94;;;17.86;88.73
48926;BME280;39838;59.938;30.642;2022-07-24T01:16:46;100171.56;;;17.87;88.82
48926;BME280;39838;59.938;30.642;2022-07-24T01:19:13;100178.56;;;17.86;88.88
48926;BME280;39838;59.938;30.642;2022-07-24T01:21:46;100176.00;;;17.85;88.92
48926;BME280;39838;59.938;30.642;2022-07-24T01:24:14;100173.38;;;17.85;88.96
48926;BME280;39838;59.938;30.642;2022-07-24T01:26:41;100173.38;;;17.85;89.19
48926;BME280;39838;59.938;30.642;2022-07-24T01:29:08;100171.59;;;17.85;89.09
48926;BME280;39838;59.938;30.642;2022-07-24T01:31:35;100179.50;;;17.85;89.04
48926;BME280;39838;59.938;30.642;2022-07-24T01:34:03;100179.50;;;17.85;88.95
48926;BME280;39838;59.938;30.642;2022-07-24T01:36:31;100186.47;;;17.86;89.30
48926;BME280;39838;59.938;30.642;2022-07-24T01:38:59;100181.16;;;17.88;89.43
48926;BME280;39838;59.938;30.642;2022-07-24T01:41:26;100182.88;;;17.89;89.43
48926;BME280;39838;59.938;30.642;2022-07-24T01:43:53;100166.25;;;17.88;89.34
48926;BME280;39838;59.938;30.642;2022-07-24T01:46:20;100167.97;;;17.89;89.43
48926;BME280;39838;59.938;30.642;2022-07-24T01:48:47;100164.44;;;17.90;89.51
48926;BME280;39838;59.938;30.642;2022-07-24T01:51:15;100163.44;;;17.93;89.36
48926;BME280;39838;59.938;30.642;2022-07-24T01:53:42;100166.06;;;17.93;89.51
48926;BME280;39838;59.938;30.642;2022-07-24T01:56:10;100157.25;;;17.95;89.38
48926;BME280;39838;59.938;30.642;2022-07-24T01:58:37;100157.19;;;17.97;89.20
48926;BME280;39838;59.938;30.642;2022-07-24T02:01:05;100151.00;;;17.98;89.28
48926;BME280;39838;59.938;30.642;2022-07-24T02:03:32;100154.38;;;18.01;89.18
48926;BME280;39838;59.938;30.642;2022-07-24T02:05:59;100146.47;;;18.01;89.12
48926;BME280;39838;59.938;30.642;2022-07-24T02:08:26;100155.19;;;18.04;89.27
48926;BME280;39838;59.938;30.642;2022-07-24T02:10:53;100149.03;;;18.05;89.04
48926;BME280;39838;59.938;30.642;2022-07-24T02:13:22;100150.66;;;18.07;88.99
48926;BME280;39838;59.938;30.642;2022-07-24T02:15:51;100152.34;;;18.10;88.82
48926;BME280;39838;59.938;30.642;2022-07-24T02:18:18;100146.09;;;18.12;89.11
48926;BME280;39838;59.938;30.642;2022-07-24T02:20:45;100152.06;;;18.17;88.86
48926;BME280;39838;59.938;30.642;2022-07-24T02:23:12;100147.53;;;18.21;88.62
48926;BME280;39838;59.938;30.642;2022-07-24T02:25:44;100146.44;;;18.26;88.52
48926;BME280;39838;59.938;30.642;2022-07-24T02:28:11;100139.25;;;18.32;88.16
48926;BME280;39838;59.938;30.642;2022-07-24T02:30:40;100146.97;;;18.36;87.94
48926;BME280;39838;59.938;30.642;2022-07-24T02:33:08;100132.97;;;18.36;87.86
48926;BME280;39838;59.938;30.642;2022-07-24T02:35:35;100144.97;;;18.43;87.62
48926;BME280;39838;59.938;30.642;2022-07-24T02:38:03;100142.22;;;18.46;87.47
48926;BME280;39838;59.938;30.642;2022-07-24T02:40:31;100142.09;;;18.49;87.73
48926;BME280;39838;59.938;30.642;2022-07-24T02:42:58;100140.34;;;18.49;87.56
48926;BME280;39838;59.938;30.642;2022-07-24T02:45:25;100140.16;;;18.54;87.26
48926;BME280;39838;59.938;30.642;2022-07-24T02:47:55;100139.13;;;18.58;87.28
48926;BME280;39838;59.938;30.642;2022-07-24T02:50:25;100144.06;;;18.67;87.06
48926;BME280;39838;59.938;30.642;2022-07-24T02:52:55;100149.00;;;18.75;86.94
48926;BME280;39838;59.938;30.642;2022-07-24T02:55:23;100146.94;;;18.83;86.67
48926;BME280;39838;59.938;30.642;2022-07-24T02:57:50;100134.53;;;18.87;86.22
48926;BME280;39838;59.938;30.642;2022-07-24T03:00:18;100139.78;;;18.87;86.09
48926;BME280;39838;59.938;30.642;2022-07-24T03:02:45;100134.53;;;18.87;86.01
48926;BME280;39838;59.938;30.642;2022-07-24T03:05:13;100138.94;;;18.86;86.08
48926;BME280;39838;59.938;30.642;2022-07-24T03:07:41;100125.16;;;18.79;85.94
48926;BME280;39838;59.938;30.642;2022-07-24T03:10:10;100131.75;;;18.90;86.05
48926;BME280;39838;59.938;30.642;2022-07-24T03:12:37;100140.75;;;19.06;85.62
48926;BME280;39838;59.938;30.642;2022-07-24T03:15:06;100139.41;;;19.18;85.47
48926;BME280;39838;59.938;30.642;2022-07-24T03:17:33;100130.19;;;19.28;85.07
48926;BME280;39838;59.938;30.642;2022-07-24T03:20:00;100135.81;;;19.41;85.00
48926;BME280;39838;59.938;30.642;2022-07-24T03:22:29;100124.75;;;19.53;84.57
48926;BME280;39838;59.938;30.642;2022-07-24T03:24:56;100121.41;;;19.70;83.94
48926;BME280;39838;59.938;30.642;2022-07-24T03:27:23;100113.84;;;19.82;83.48
48926;BME280;39838;59.938;30.642;2022-07-24T03:29:50;100108.09;;;19.93;82.99
48926;BME280;39838;59.938;30.642;2022-07-24T03:32:17;100109.38;;;20.03;82.63
48926;BME280;39838;59.938;30.642;2022-07-24T03:34:45;100112.25;;;20.17;82.35
48926;BME280;39838;59.938;30.642;2022-07-24T03:37:12;100117.69;;;20.33;81.48
48926;BME280;39838;59.938;30.642;2022-07-24T03:39:40;100115.47;;;20.43;81.03
48926;BME280;39838;59.938;30.642;2022-07-24T03:42:07;100122.19;;;20.50;80.82
48926;BME280;39838;59.938;30.642;2022-07-24T03:44:34;100117.38;;;20.60;80.82
48926;BME280;39838;59.938;30.642;2022-07-24T03:47:01;100121.34;;;20.68;80.25
48926;BME280;39838;59.938;30.642;2022-07-24T03:49:29;100118.53;;;20.71;80.09
48926;BME280;39838;59.938;30.642;2022-07-24T03:51:56;100130.50;;;20.79;79.96
48926;BME280;39838;59.938;30.642;2022-07-24T03:54:23;100126.03;;;20.81;79.54
48926;BME280;39838;59.938;30.642;2022-07-24T03:56:51;100126.09;;;20.79;79.57
48926;BME280;39838;59.938;30.642;2022-07-24T03:59:18;100125.47;;;20.74;78.89
48926;BME280;39838;59.938;30.642;2022-07-24T04:01:45;100114.47;;;20.64;78.64
48926;BME280;39838;59.938;30.642;2022-07-24T04:04:13;100117.28;;;20.61;78.43
48926;BME280;39838;59.938;30.642;2022-07-24T04:06:40;100119.19;;;20.58;78.82
48926;BME280;39838;59.938;30.642;2022-07-24T04:09:07;100121.06;;;20.56;78.44
48926;BME280;39838;59.938;30.642;2022-07-24T04:11:34;100127.34;;;20.53;78.45
48926;BME280;39838;59.938;30.642;2022-07-24T04:14:03;100119.47;;;20.52;78.50
48926;BME280;39838;59.938;30.642;2022-07-24T04:16:30;100123.91;;;20.51;78.56
48926;BME280;39838;59.938;30.642;2022-07-24T04:18:57;100122.97;;;20.52;78.62
48926;BME280;39838;59.938;30.642;2022-07-24T04:21:25;100131.81;;;20.51;78.61
48926;BME280;39838;59.938;30.642;2022-07-24T04:23:52;100127.34;;;20.53;78.82
48926;BME280;39838;59.938;30.642;2022-07-24T04:26:19;100117.50;;;20.57;78.57
48926;BME280;39838;59.938;30.642;2022-07-24T04:28:47;100126.25;;;20.57;78.34
48926;BME280;39838;59.938;30.642;2022-07-24T04:31:16;100122.63;;;20.60;78.44
48926;BME280;39838;59.938;30.642;2022-07-24T04:33:43;100121.19;;;20.71;78.28
48926;BME280;39838;59.938;30.642;2022-07-24T04:36:10;100114.63;;;20.80;77.69
48926;BME280;39838;59.938;30.642;2022-07-24T04:38:37;100113.31;;;20.89;77.50
48926;BME280;39838;59.938;30.642;2022-07-24T04:41:04;100111.06;;;20.98;76.82
48926;BME280;39838;59.938;30.642;2022-07-24T04:43:32;100107.34;;;21.03;76.18
48926;BME280;39838;59.938;30.642;2022-07-24T04:45:59;100106.97;;;21.10;76.06
48926;BME280;39838;59.938;30.642;2022-07-24T04:48:27;100104.81;;;21.18;75.54
48926;BME280;39838;59.938;30.642;2022-07-24T04:50:55;100101.84;;;21.24;75.17
48926;BME280;39838;59.938;30.642;2022-07-24T04:53:22;100103.28;;;21.32;75.15
48926;BME280;39838;59.938;30.642;2022-07-24T04:55:49;100099.88;;;21.30;74.90
48926;BME280;39838;59.938;30.642;2022-07-24T04:58:16;100096.78;;;21.20;75.13
48926;BME280;39838;59.938;30.642;2022-07-24T05:00:43;100100.16;;;21.23;75.51
48926;BME280;39838;59.938;30.642;2022-07-24T05:03:10;100105.78;;;21.35;75.23
48926;BME280;39838;59.938;30.642;2022-07-24T05:05:39;100106.25;;;21.43;75.01
48926;BME280;39838;59.938;30.642;2022-07-24T05:08:06;100105.09;;;21.48;74.57
48926;BME280;39838;59.938;30.642;2022-07-24T05:10:33;100104.38;;;21.45;74.00
48926;BME280;39838;59.938;30.642;2022-07-24T05:13:00;100109.56;;;21.46;73.94
48926;BME280;39838;59.938;30.642;2022-07-24T05:15:27;100112.38;;;21.43;73.81
48926;BME280;39838;59.938;30.642;2022-07-24T05:17:54;100109.25;;;21.52;73.29
48926;BME280;39838;59.938;30.642;2022-07-24T05:20:21;100112.22;;;21.64;72.89
48926;BME280;39838;59.938;30.642;2022-07-24T05:22:50;100113.06;;;21.64;72.30
48926;BME280;39838;59.938;30.642;2022-07-24T05:25:17;100120.06;;;21.65;72.27
48926;BME280;39838;59.938;30.642;2022-07-24T05:27:44;100124.59;;;21.63;72.71
48926;BME280;39838;59.938;30.642;2022-07-24T05:30:12;100120.91;;;21.66;72.49
48926;BME280;39838;59.938;30.642;2022-07-24T05:32:39;100132.50;;;21.63;72.11
48926;BME280;39838;59.938;30.642;2022-07-24T05:35:06;100120.84;;;21.50;72.49
48926;BME280;39838;59.938;30.642;2022-07-24T05:37:34;100123.81;;;21.44;72.89
48926;BME280;39838;59.938;30.642;2022-07-24T05:40:04;100109.28;;;21.35;73.21
48926;BME280;39838;59.938;30.642;2022-07-24T05:42:31;100122.09;;;21.43;73.32
48926;BME280;39838;59.938;30.642;2022-07-24T05:44:58;100116.34;;;21.52;72.73
48926;BME280;39838;59.938;30.642;2022-07-24T05:47:25;100129.00;;;21.63;72.56
48926;BME280;39838;59.938;30.642;2022-07-24T05:49:52;100126.91;;;21.69;72.46
48926;BME280;39838;59.938;30.642;2022-07-24T05:52:19;100126.13;;;21.67;71.92
48926;BME280;39838;59.938;30.642;2022-07-24T05:54:46;100121.31;;;21.58;71.84
48926;BME280;39838;59.938;30.642;2022-07-24T05:57:15;100118.97;;;21.52;72.24
48926;BME280;39838;59.938;30.642;2022-07-24T05:59:42;100126.44;;;21.44;72.60
48926;BME280;39838;59.938;30.642;2022-07-24T06:02:09;100120.84;;;21.33;72.02
48926;BME280;39838;59.938;30.642;2022-07-24T06:04:36;100125.38;;;21.12;72.02
48926;BME280;39838;59.938;30.642;2022-07-24T06:07:07;100117.19;;;20.99;72.37
48926;BME280;39838;59.938;30.642;2022-07-24T06:09:35;100118.00;;;21.01;72.89
48926;BME280;39838;59.938;30.642;2022-07-24T06:12:02;100106.28;;;21.07;72.71
48926;BME280;39838;59.938;30.642;2022-07-24T06:14:32;100121.78;;;21.32;72.03
48926;BME280;39838;59.938;30.642;2022-07-24T06:16:59;100118.00;;;21.55;71.79
48926;BME280;39838;59.938;30.642;2022-07-24T06:19:26;100118.56;;;21.77;71.59
48926;BME280;39838;59.938;30.642;2022-07-24T06:21:53;100125.47;;;21.97;70.43
48926;BME280;39838;59.938;30.642;2022-07-24T06:24:20;100113.06;;;22.15;69.91
48926;BME280;39838;59.938;30.642;2022-07-24T06:26:47;100112.78;;;22.37;69.70
48926;BME280;39838;59.938;30.642;2022-07-24T06:29:15;100121.47;;;22.54;68.58
48926;BME280;39838;59.938;30.642;2022-07-24T06:31:43;100119.59;;;22.72;68.17
48926;BME280;39838;59.938;30.642;2022-07-24T06:34:10;100130.03;;;22.91;67.14
48926;BME280;39838;59.938;30.642;2022-07-24T06:36:37;100132.50;;;22.94;66.72
48926;BME280;39838;59.938;30.642;2022-07-24T06:39:04;100136.19;;;22.92;66.36
48926;BME280;39838;59.938;30.642;2022-07-24T06:41:31;100122.25;;;22.88;66.16
48926;BME280;39838;59.938;30.642;2022-07-24T06:43:58;100130.91;;;22.92;66.08
48926;BME280;39838;59.938;30.642;2022-07-24T06:46:26;100128.41;;;23.04;65.99
48926;BME280;39838;59.938;30.642;2022-07-24T06:48:54;100124.66;;;23.23;64.96
48926;BME280;39838;59.938;30.642;2022-07-24T06:51:21;100120.06;;;23.26;64.33
48926;BME280;39838;59.938;30.642;2022-07-24T06:53:48;100121.25;;;23.21;63.90
48926;BME280;39838;59.938;30.642;2022-07-24T06:56:16;100122.31;;;23.18;64.18
48926;BME280;39838;59.938;30.642;2022-07-24T06:58:43;100128.16;;;23.23;63.71
48926;BME280;39838;59.938;30.642;2022-07-24T07:01:10;100127.25;;;23.24;63.74
48926;BME280;39838;59.938;30.642;2022-07-24T07:03:37;100128.75;;;23.28;63.65
48926;BME280;39838;59.938;30.642;2022-07-24T07:06:06;100122.34;;;23.32;63.14
48926;BME280;39838;59.938;30.642;2022-07-24T07:08:33;100120.44;;;23.34;62.77
48926;BME280;39838;59.938;30.642;2022-07-24T07:11:00;100116.50;;;23.41;63.02
48926;BME280;39838;59.938;30.642;2022-07-24T07:13:27;100125.13;;;23.45;62.85
48926;BME280;39838;59.938;30.642;2022-07-24T07:15:54;100111.22;;;23.56;62.90
48926;BME280;39838;59.938;30.642;2022-07-24T07:18:21;100119.53;;;23.65;62.38
48926;BME280;39838;59.938;30.642;2022-07-24T07:20:48;100114.28;;;23.64;62.43
48926;BME280;39838;59.938;30.642;2022-07-24T07:23:21;100116.78;;;23.67;62.22
48926;BME280;39838;59.938;30.642;2022-07-24T07:25:49;100113.00;;;23.71;62.15
48926;BME280;39838;59.938;30.642;2022-07-24T07:28:16;100122.00;;;23.83;61.17
48926;BME280;39838;59.938;30.642;2022-07-24T07:30:43;100115.19;;;23.93;60.72
48926;BME280;39838;59.938;30.642;2022-07-24T07:33:10;100118.22;;;24.01;60.16
48926;BME280;39838;59.938;30.642;2022-07-24T07:35:37;100119.28;;;23.99;59.46
48926;BME280;39838;59.938;30.642;2022-07-24T07:38:04;100118.13;;;23.88;59.86
48926;BME280;39838;59.938;30.642;2022-07-24T07:40:33;100119.81;;;23.89;59.77
48926;BME280;39838;59.938;30.642;2022-07-24T07:43:00;100118.88;;;23.90;60.16
48926;BME280;39838;59.938;30.642;2022-07-24T07:45:27;100114.25;;;23.94;59.89
48926;BME280;39838;59.938;30.642;2022-07-24T07:47:54;100114.34;;;23.92;60.01
48926;BME280;39838;59.938;30.642;2022-07-24T07:50:21;100115.47;;;23.88;58.81
48926;BME280;39838;59.938;30.642;2022-07-24T07:52:48;100117.16;;;23.75;58.86
48926;BME280;39838;59.938;30.642;2022-07-24T07:55:15;100121.63;;;23.75;59.21
48926;BME280;39838;59.938;30.642;2022-07-24T07:57:44;100112.31;;;23.67;59.62
48926;BME280;39838;59.938;30.642;2022-07-24T08:00:11;100120.06;;;23.70;59.25
48926;BME280;39838;59.938;30.642;2022-07-24T08:02:39;100112.59;;;23.77;58.48
48926;BME280;39838;59.938;30.642;2022-07-24T08:05:06;100118.88;;;23.76;58.93
48926;BME280;39838;59.938;30.642;2022-07-24T08:07:35;100112.72;;;23.76;57.96
48926;BME280;39838;59.938;30.642;2022-07-24T08:10:03;100106.66;;;23.74;58.39
48926;BME280;39838;59.938;30.642;2022-07-24T08:12:30;100102.78;;;23.65;57.87
48926;BME280;39838;59.938;30.642;2022-07-24T08:14:58;100112.59;;;23.63;58.24
48926;BME280;39838;59.938;30.642;2022-07-24T08:17:25;100113.28;;;23.66;57.93
48926;BME280;39838;59.938;30.642;2022-07-24T08:19:52;100115.81;;;23.68;57.34
48926;BME280;39838;59.938;30.642;2022-07-24T08:22:20;100108.25;;;23.62;57.69
48926;BME280;39838;59.938;30.642;2022-07-24T08:24:47;100119.44;;;23.67;57.63
48926;BME280;39838;59.938;30.642;2022-07-24T08:27:14;100116.56;;;23.70;57.24
48926;BME280;39838;59.938;30.642;2022-07-24T08:29:41;100114.41;;;23.77;57.37
48926;BME280;39838;59.938;30.642;2022-07-24T08:32:09;100111.22;;;23.72;57.09
48926;BME280;39838;59.938;30.642;2022-07-24T08:34:36;100123.03;;;23.66;57.09
48926;BME280;39838;59.938;30.642;2022-07-24T08:37:03;100122.44;;;23.61;57.88
48926;BME280;39838;59.938;30.642;2022-07-24T08:39:30;100133.06;;;23.61;57.76
48926;BME280;39838;59.938;30.642;2022-07-24T08:41:57;100134.75;;;23.62;57.64
48926;BME280;39838;59.938;30.642;2022-07-24T08:44:25;100129.44;;;23.62;57.35
48926;BME280;39838;59.938;30.642;2022-07-24T08:46:53;100125.47;;;23.69;57.07
48926;BME280;39838;59.938;30.642;2022-07-24T08:49:23;100131.84;;;23.81;57.86
48926;BME280;39838;59.938;30.642;2022-07-24T08:51:52;100135.25;;;23.83;56.87
48926;BME280;39838;59.938;30.642;2022-07-24T08:54:20;100129.47;;;23.76;56.52
48926;BME280;39838;59.938;30.642;2022-07-24T08:56:47;100137.13;;;23.66;56.53
48926;BME280;39838;59.938;30.642;2022-07-24T08:59:18;100125.75;;;23.34;57.34
48926;BME280;39838;59.938;30.642;2022-07-24T09:01:47;100143.31;;;23.21;57.79
48926;BME280;39838;59.938;30.642;2022-07-24T09:04:36;100152.75;;;22.95;58.42
48926;BME280;39838;59.938;30.642;2022-07-24T09:07:05;100146.09;;;22.88;58.70
48926;BME280;39838;59.938;30.642;2022-07-24T09:09:34;100149.84;;;22.84;58.80
48926;BME280;39838;59.938;30.642;2022-07-24T09:12:05;100151.28;;;22.74;59.18
48926;BME280;39838;59.938;30.642;2022-07-24T09:14:34;100144.53;;;22.68;59.84
48926;BME280;39838;59.938;30.642;2022-07-24T09:17:03;100144.53;;;22.68;60.12
48926;BME280;39838;59.938;30.642;2022-07-24T09:19:30;100132.66;;;22.75;59.82
48926;BME280;39838;59.938;30.642;2022-07-24T09:21:59;100149.16;;;22.96;59.32
48926;BME280;39838;59.938;30.642;2022-07-24T09:24:26;100145.56;;;23.13;59.64
48926;BME280;39838;59.938;30.642;2022-07-24T09:26:55;100112.41;;;23.06;59.17
48926;BME280;39838;59.938;30.642;2022-07-24T09:29:24;100137.69;;;23.41;59.22
48926;BME280;39838;59.938;30.642;2022-07-24T09:31:56;100141.91;;;23.60;58.36
48926;BME280;39838;59.938;30.642;2022-07-24T09:34:24;100130.78;;;23.69;57.99
48926;BME280;39838;59.938;30.642;2022-07-24T09:36:56;100140.88;;;23.78;57.84
48926;BME280;39838;59.938;30.642;2022-07-24T09:39:25;100139.25;;;23.90;57.12
48926;BME280;39838;59.938;30.642;2022-07-24T09:41:54;100114.88;;;23.97;56.06
48926;BME280;39838;59.938;30.642;2022-07-24T09:44:23;100130.72;;;24.28;55.18
48926;BME280;39838;59.938;30.642;2022-07-24T09:46:58;100137.47;;;24.47;54.52
48926;BME280;39838;59.938;30.642;2022-07-24T09:49:25;100135.66;;;24.48;56.05
48926;BME280;39838;59.938;30.642;2022-07-24T09:52:12;100108.88;;;24.65;54.47
48926;BME280;39838;59.938;30.642;2022-07-24T09:54:43;100117.81;;;24.91;53.47
48926;BME280;39838;59.938;30.642;2022-07-24T09:57:24;100124.41;;;24.98;53.19
48926;BME280;39838;59.938;30.642;2022-07-24T09:59:53;100124.50;;;25.11;52.77
48926;BME280;39838;59.938;30.642;2022-07-24T10:02:21;100124.84;;;25.19;52.66
48926;BME280;39838;59.938;30.642;2022-07-24T10:04:50;100139.09;;;25.18;52.34
48926;BME280;39838;59.938;30.642;2022-07-24T10:07:20;100112.84;;;24.99;51.75
48926;BME280;39838;59.938;30.642;2022-07-24T10:09:50;100118.25;;;24.98;52.20
48926;BME280;39838;59.938;30.642;2022-07-24T10:12:19;100129.94;;;25.10;52.76
48926;BME280;39838;59.938;30.642;2022-07-24T10:14:50;100117.38;;;25.12;51.83
48926;BME280;39838;59.938;30.642;2022-07-24T10:17:18;100142.13;;;25.39;51.67
48926;BME280;39838;59.938;30.642;2022-07-24T10:19:47;100140.56;;;25.49;51.38
48926;BME280;39838;59.938;30.642;2022-07-24T10:22:16;100125.47;;;25.63;50.68
48926;BME280;39838;59.938;30.642;2022-07-24T10:25:05;100126.22;;;25.65;50.15
48926;BME280;39838;59.938;30.642;2022-07-24T10:27:35;100117.81;;;25.71;50.39
48926;BME280;39838;59.938;30.642;2022-07-24T10:30:05;100111.38;;;25.75;49.88
48926;BME280;39838;59.938;30.642;2022-07-24T10:32:33;100120.06;;;25.77;49.98
48926;BME280;39838;59.938;30.642;2022-07-24T10:35:07;100117.50;;;25.63;48.85
48926;BME280;39838;59.938;30.642;2022-07-24T10:37:43;100118.09;;;25.53;48.61
48926;BME280;39838;59.938;30.642;2022-07-24T10:40:23;100096.91;;;25.39;48.88
48926;BME280;39838;59.938;30.642;2022-07-24T10:43:16;100120.44;;;25.58;49.02
48926;BME280;39838;59.938;30.642;2022-07-24T10:45:45;100124.13;;;25.82;48.69
48926;BME280;39838;59.938;30.642;2022-07-24T10:48:26;100117.53;;;25.88;48.61
48926;BME280;39838;59.938;30.642;2022-07-24T10:51:00;100117.31;;;25.91;48.98
48926;BME280;39838;59.938;30.642;2022-07-24T10:53:30;100112.22;;;25.88;49.26
48926;BME280;39838;59.938;30.642;2022-07-24T10:56:23;100116.53;;;25.64;49.62
48926;BME280;39838;59.938;30.642;2022-07-24T10:59:00;100125.16;;;25.54;48.83
48926;BME280;39838;59.938;30.642;2022-07-24T11:01:29;100124.91;;;25.57;48.69
48926;BME280;39838;59.938;30.642;2022-07-24T11:03:57;100128.19;;;25.88;49.14
48926;BME280;39838;59.938;30.642;2022-07-24T11:06:44;100107.75;;;26.01;48.76
48926;BME280;39838;59.938;30.642;2022-07-24T11:09:12;100122.81;;;26.01;47.84
48926;BME280;39838;59.938;30.642;2022-07-24T11:11:42;100124.13;;;25.82;47.83
48926;BME280;39838;59.938;30.642;2022-07-24T11:14:10;100118.78;;;25.70;47.71
48926;BME280;39838;59.938;30.642;2022-07-24T11:16:37;100117.03;;;25.43;48.14
48926;BME280;39838;59.938;30.642;2022-07-24T11:19:34;100111.66;;;25.18;49.09
48926;BME280;39838;59.938;30.642;2022-07-24T11:22:10;100123.25;;;25.17;49.87
48926;BME280;39838;59.938;30.642;2022-07-24T11:24:41;100125.69;;;25.20;49.16
48926;BME280;39838;59.938;30.642;2022-07-24T11:27:19;100121.47;;;25.30;48.88
48926;BME280;39838;59.938;30.642;2022-07-24T11:29:52;100114.09;;;25.61;48.41
48926;BME280;39838;59.938;30.642;2022-07-24T11:32:20;100121.13;;;25.87;47.93
48926;BME280;39838;59.938;30.642;2022-07-24T11:34:49;100127.22;;;25.89;48.10
48926;BME280;39838;59.938;30.642;2022-07-24T11:37:17;100120.94;;;25.77;47.21
48926;BME280;39838;59.938;30.642;2022-07-24T11:39:45;100108.78;;;25.73;47.42
48926;BME280;39838;59.938;30.642;2022-07-24T11:42:14;100112.28;;;25.74;47.84
48926;BME280;39838;59.938;30.642;2022-07-24T11:44:44;100109.28;;;25.66;48.17
48926;BME280;39838;59.938;30.642;2022-07-24T11:47:14;100092.81;;;25.61;48.33
48926;BME280;39838;59.938;30.642;2022-07-24T11:49:44;100105.19;;;25.74;48.88
48926;BME280;39838;59.938;30.642;2022-07-24T11:52:17;100116.22;;;25.68;49.45
48926;BME280;39838;59.938;30.642;2022-07-24T11:54:45;100113.81;;;25.38;49.92
48926;BME280;39838;59.938;30.642;2022-07-24T11:57:16;100117.78;;;25.05;50.65
48926;BME280;39838;59.938;30.642;2022-07-24T11:59:46;100118.53;;;24.81;51.05
48926;BME280;39838;59.938;30.642;2022-07-24T12:02:14;100118.69;;;24.77;51.26
48926;BME280;39838;59.938;30.642;2022-07-24T12:04:42;100114.25;;;24.78;51.13
48926;BME280;39838;59.938;30.642;2022-07-24T12:07:12;100112.03;;;24.85;51.26
48926;BME280;39838;59.938;30.642;2022-07-24T12:09:48;100116.94;;;24.91;51.24
48926;BME280;39838;59.938;30.642;2022-07-24T12:12:21;100124.34;;;25.00;51.58
48926;BME280;39838;59.938;30.642;2022-07-24T12:14:51;100120.44;;;25.05;51.41
48926;BME280;39838;59.938;30.642;2022-07-24T12:17:18;100126.53;;;25.08;51.06
48926;BME280;39838;59.938;30.642;2022-07-24T12:19:53;100112.50;;;24.91;51.52
48926;BME280;39838;59.938;30.642;2022-07-24T12:22:21;100121.28;;;25.06;51.34
48926;BME280;39838;59.938;30.642;2022-07-24T12:24:49;100106.56;;;25.15;51.72
48926;BME280;39838;59.938;30.642;2022-07-24T12:27:38;100107.75;;;25.23;50.78
48926;BME280;39838;59.938;30.642;2022-07-24T12:30:21;100074.44;;;25.18;49.94
48926;BME280;39838;59.938;30.642;2022-07-24T12:32:54;100102.38;;;25.63;49.00
48926;BME280;39838;59.938;30.642;2022-07-24T12:35:21;100100.59;;;26.02;48.70
48926;BME280;39838;59.938;30.642;2022-07-24T12:37:48;100102.50;;;26.62;47.82
48926;BME280;39838;59.938;30.642;2022-07-24T12:40:23;100102.66;;;27.08;45.61
48926;BME280;39838;59.938;30.642;2022-07-24T12:42:58;100103.88;;;27.15;44.82
48926;BME280;39838;59.938;30.642;2022-07-24T12:45:27;100108.13;;;26.94;45.77
48926;BME280;39838;59.938;30.642;2022-07-24T12:48:09;100107.13;;;26.47;46.39